Temperatura - Umidità - Pioggia orarie dal 12-04-2021 al 20-04-2021

Intensità - Direzione vento orarie dal 12-04-2021 al 20-04-2021

Dati orari da stazione meteo dal 12-04-2021 al 20-04-2021

Nome Stazione Data Ora Temperatura [°C] Umidità [%] Pioggia [mm] Intensità vento[km/h] Direzione vento [°]
Savigliano 12-04-2021 02:00 7.1 90 0.1 0 69
Savigliano 12-04-2021 03:00 6.9 90.4 0 0 73
Savigliano 12-04-2021 04:00 6.9 90.9 0 0 69
Savigliano 12-04-2021 05:00 6.8 91.2 0 0 177
Savigliano 12-04-2021 06:00 6.8 91.4 0 0.4 321
Savigliano 12-04-2021 07:00 6.8 91.7 0 1.4 303
Savigliano 12-04-2021 08:00 7.3 92 0 1.8 279
Savigliano 12-04-2021 09:00 7.3 93.5 0 1.1 272
Savigliano 12-04-2021 10:00 7.1 93.5 0 0.7 294
Savigliano 12-04-2021 11:00 8.9 91.8 0 1.1 328
Savigliano 12-04-2021 12:00 9.6 87.9 0 1.1 23
Savigliano 12-04-2021 13:00 9.8 81.5 0 1.1 27
Savigliano 12-04-2021 14:00 11.1 80 0 1.8 88
Savigliano 12-04-2021 15:00 12 74.1 0 2.2 88
Savigliano 12-04-2021 16:00 12 74.1 0 2.9 103
Savigliano 12-04-2021 17:00 10.3 77.9 0 5.4 86
Savigliano 12-04-2021 18:00 9.3 84.6 0 5 136
Savigliano 12-04-2021 19:00 9.6 84.2 0 6.5 263
Savigliano 12-04-2021 20:00 8.5 85.6 0 4.7 256
Savigliano 12-04-2021 21:00 8.2 85.7 0 1.8 246
Savigliano 12-04-2021 22:00 7.2 85.4 0 1.8 180
Savigliano 12-04-2021 23:00 6.7 84.4 0 1.4 186
Savigliano 13-04-2021 00:00 7.2 85.1 0 5.8 219
Savigliano 13-04-2021 01:00 4.9 85.6 0 0.4 214
Savigliano 13-04-2021 02:00 4.6 90.5 0 1.8 212
Savigliano 13-04-2021 03:00 4.4 89.3 0 0 211
Savigliano 13-04-2021 04:00 3.7 89.4 0 0.4 212
Savigliano 13-04-2021 05:00 2.7 89.6 0 0.4 213
Savigliano 13-04-2021 06:00 2.4 89.2 0 0 251
Savigliano 13-04-2021 07:00 2 89.8 0 0 303
Savigliano 13-04-2021 08:00 2.6 89.5 0 3.2 182
Savigliano 13-04-2021 09:00 4.7 83.1 0 5.8 163
Savigliano 13-04-2021 10:00 8.2 72.6 0 1.1 155
Savigliano 13-04-2021 11:00 10.7 43.4 0 1.8 113
Savigliano 13-04-2021 12:00 11.1 37 0 7.6 113
Savigliano 13-04-2021 13:00 11.9 35.7 0 4.7 143
Savigliano 13-04-2021 14:00 12.2 35.6 0 6.1 110
Savigliano 13-04-2021 15:00 12.6 35.6 0 0 126
Savigliano 13-04-2021 16:00 13.5 35.9 0 1.1 141
Savigliano 13-04-2021 17:00 14.5 35.8 0 2.5 187
Savigliano 13-04-2021 18:00 13.4 35.8 0 0 88
Savigliano 13-04-2021 19:00 13.6 36.1 0 0 163
Savigliano 13-04-2021 20:00 12 39.4 0 0 92
Savigliano 13-04-2021 21:00 10.5 45.7 0 0 80
Savigliano 13-04-2021 22:00 9.5 53.2 0 0 82
Savigliano 13-04-2021 23:00 8.1 57.5 0 0 152
Savigliano 14-04-2021 00:00 7.1 65.5 0 0 253
Savigliano 14-04-2021 01:00 6.8 68 0 0.4 287
Savigliano 14-04-2021 02:00 6 66.2 0 0 299
Savigliano 14-04-2021 03:00 5 59.4 0 0 202
Savigliano 14-04-2021 04:00 4.8 51.2 0 0 304
Savigliano 14-04-2021 05:00 4.7 56.4 0 0 330
Savigliano 14-04-2021 06:00 4.8 57.3 0 0 282
Savigliano 14-04-2021 07:00 4.9 54.7 0 0 269
Savigliano 14-04-2021 08:00 4.7 51.7 0 0 264
Savigliano 14-04-2021 09:00 6.7 47.5 0 0 291
Savigliano 14-04-2021 10:00 9.6 43.6 0 0 261
Savigliano 14-04-2021 11:00 9.7 51.2 0 0 157
Savigliano 14-04-2021 12:00 9.9 59.2 0 0 185
Savigliano 14-04-2021 13:00 9.9 59.1 0 0 133
Savigliano 14-04-2021 14:00 10.7 55.7 0 0 175
Savigliano 14-04-2021 15:00 12.3 52 0 0 137
Savigliano 14-04-2021 16:00 12.1 45.3 0 0 104
Savigliano 14-04-2021 17:00 12.2 44.7 0 0 173
Savigliano 14-04-2021 18:00 12.4 46.1 0 0 277
Savigliano 14-04-2021 19:00 10.6 52 0 0 192
Savigliano 14-04-2021 20:00 8.7 67.7 0 0 232
Savigliano 14-04-2021 21:00 7.4 72.5 0 0 284
Savigliano 14-04-2021 22:00 7 74.7 0 0 226
Savigliano 14-04-2021 23:00 7.1 79.3 0 0 231
Savigliano 15-04-2021 00:00 7 78.8 0 0 211
Savigliano 15-04-2021 01:00 7 78.5 0 0 198
Savigliano 15-04-2021 02:00 6.9 79.1 0 0 217
Savigliano 15-04-2021 03:00 6.7 78.6 0 0 233
Savigliano 15-04-2021 04:00 6.9 78.3 0 0 263
Savigliano 15-04-2021 05:00 6.5 82.8 0 0 311
Savigliano 15-04-2021 06:00 5.6 84 0 0 262
Savigliano 15-04-2021 07:00 4.7 82.7 0.1 0 263
Savigliano 15-04-2021 08:00 4.5 84.7 0 0 239
Savigliano 15-04-2021 09:00 4.8 88.3 0 0 299
Savigliano 15-04-2021 10:00 4.8 85.4 0 0 276
Savigliano 15-04-2021 11:00 4.7 85.1 0 1.8 194
Savigliano 15-04-2021 12:00 4.7 84.7 0 0 278
Savigliano 15-04-2021 13:00 4.6 83.9 0 0 300
Savigliano 15-04-2021 14:00 4.4 84.4 0 1.4 277
Savigliano 15-04-2021 15:00 6.2 80.6 0 4.7 273
Savigliano 15-04-2021 16:00 7.2 74.1 0 2.5 274
Savigliano 15-04-2021 17:00 7 67.4 0 1.8 254
Savigliano 15-04-2021 18:00 6.8 65.4 0 0 226
Savigliano 15-04-2021 19:00 6.7 65.8 0 0 220
Savigliano 15-04-2021 20:00 7 71.5 0 0 311
Savigliano 15-04-2021 21:00 6.6 76.7 0 0 290
Savigliano 15-04-2021 22:00 4.2 83.6 0 0 126
Savigliano 15-04-2021 23:00 4.8 85.4 0 0 122
Savigliano 16-04-2021 00:00 4.6 85.8 0.3 0 175
Savigliano 16-04-2021 01:00 4.8 90.2 0 1.1 314
Savigliano 16-04-2021 02:00 4.4 90.9 0 0 317
Savigliano 16-04-2021 03:00 4 89.1 0 0 237
Savigliano 16-04-2021 04:00 2.5 89.5 0 0.7 289
Savigliano 16-04-2021 05:00 1.9 89.8 0 2.9 286
Savigliano 16-04-2021 06:00 1.8 90 0 4.3 285
Savigliano 16-04-2021 07:00 1.8 90.2 0 9.4 284
Savigliano 16-04-2021 08:00 1.8 90.1 0 3.2 284
Savigliano 16-04-2021 09:00 3.7 90 0 1.1 310
Savigliano 16-04-2021 10:00 4.6 89.3 0 2.9 292
Savigliano 16-04-2021 11:00 4.6 88.9 0 6.5 286
Savigliano 16-04-2021 12:00 4.8 90.4 0 4.7 285
Savigliano 16-04-2021 13:00 4.2 86.3 0 5.4 288
Savigliano 16-04-2021 14:00 4.5 82 0 6.5 271
Savigliano 16-04-2021 15:00 4.5 78.3 0 4 275
Savigliano 16-04-2021 16:00 7 73.6 0 4.7 272
Savigliano 16-04-2021 17:00 7 67 0 9.4 259
Savigliano 16-04-2021 18:00 7.1 66.9 0 16.9 262
Savigliano 16-04-2021 19:00 7.3 65.8 0 4.7 241
Savigliano 16-04-2021 20:00 7.4 66.3 0 5 220
Savigliano 16-04-2021 21:00 6.8 72.3 0 6.5 216
Savigliano 16-04-2021 22:00 5.5 73.1 0 3.6 206
Savigliano 16-04-2021 23:00 4.9 77.1 0 1.8 204
Savigliano 17-04-2021 00:00 4.9 74.2 0 2.9 199
Savigliano 17-04-2021 01:00 4.3 78.1 0 0.7 183
Savigliano 17-04-2021 02:00 4.3 78.5 0 1.1 204
Savigliano 17-04-2021 03:00 4.2 81.7 0 1.8 200
Savigliano 17-04-2021 04:00 4.2 84.1 0 1.1 188
Savigliano 17-04-2021 05:00 4.7 84.8 0 1.1 190
Savigliano 17-04-2021 06:00 4.6 84.5 0 0.7 201
Savigliano 17-04-2021 07:00 4.9 84.2 0 1.1 188
Savigliano 17-04-2021 08:00 4.3 83.6 0 0.4 191
Savigliano 17-04-2021 09:00 5.4 81.3 0 0.4 186
Savigliano 17-04-2021 10:00 7.8 71.3 0 1.8 219
Savigliano 17-04-2021 11:00 9.9 58.2 0 2.2 284
Savigliano 17-04-2021 12:00 11.8 51.5 0 2.2 267
Savigliano 17-04-2021 13:00 12.1 44 0 0.4 170
Savigliano 17-04-2021 14:00 13.4 39.2 0 0.4 242
Savigliano 17-04-2021 15:00 12.3 40 0 1.4 188
Savigliano 17-04-2021 16:00 12.3 37.8 0 6.5 154
Savigliano 17-04-2021 17:00 13.5 36.5 0 4.3 165
Savigliano 17-04-2021 18:00 12.8 35.5 0 1.1 252
Savigliano 17-04-2021 19:00 12.2 35.6 0 1.4 231
Savigliano 17-04-2021 20:00 11.9 37.4 0 0 179
Savigliano 17-04-2021 21:00 9.9 44.8 0 0 180
Savigliano 17-04-2021 22:00 9.6 50 0 0 208
Savigliano 17-04-2021 23:00 7.1 55.2 0 0 211
Savigliano 18-04-2021 00:00 5.7 70.2 0 0 151
Savigliano 18-04-2021 01:00 4.8 78.4 0 0 158
Savigliano 18-04-2021 02:00 4.4 78.9 0 0 179
Savigliano 18-04-2021 03:00 4.3 78 0 0 159
Savigliano 18-04-2021 04:00 4.3 78.5 0 0 152
Savigliano 18-04-2021 05:00 3.8 84.1 0 0 153
Savigliano 18-04-2021 06:00 3.1 82.8 0 0 172
Savigliano 18-04-2021 07:00 3.5 79.7 0 0 168
Savigliano 18-04-2021 08:00 4.4 79.7 0 0 156
Savigliano 18-04-2021 09:00 6.2 73.2 0 0 182
Savigliano 18-04-2021 10:00 7.3 72.4 0 0 154
Savigliano 18-04-2021 11:00 10.3 58.4 0 0 188
Savigliano 18-04-2021 12:00 12 51.6 0 0 134
Savigliano 18-04-2021 13:00 12.1 51.7 0 0 112
Savigliano 18-04-2021 14:00 12.4 51 0 0 107
Savigliano 18-04-2021 15:00 13.4 44.9 0 0 159
Savigliano 18-04-2021 16:00 12.1 50 0 0 240
Savigliano 18-04-2021 17:00 14.2 44.4 0 0 203
Savigliano 18-04-2021 18:00 14.6 44.7 0 0 210
Savigliano 18-04-2021 19:00 14.5 43.6 0 0 268
Savigliano 18-04-2021 20:00 9.8 61.8 0 0 236
Savigliano 18-04-2021 21:00 9.6 66.1 0 0 231
Savigliano 18-04-2021 22:00 9.2 66 0 0 228
Savigliano 18-04-2021 23:00 8.2 69.4 0 0 132
Savigliano 19-04-2021 00:00 7.1 75.1 0 0 68
Savigliano 19-04-2021 01:00 7.1 75.1 0 0 210
Savigliano 19-04-2021 02:00 7 78.5 0 0 291
Savigliano 19-04-2021 03:00 6.8 81.7 0 0 302
Savigliano 19-04-2021 04:00 7.3 83.5 0 0 311
Savigliano 19-04-2021 05:00 7.3 80.2 0 0 310
Savigliano 19-04-2021 06:00 7.1 79.2 0 0 307
Savigliano 19-04-2021 07:00 4.9 83.7 0 0 243
Savigliano 19-04-2021 08:00 4.1 84.3 0 0 236
Savigliano 19-04-2021 09:00 7.1 81.7 0 0 224
Savigliano 19-04-2021 10:00 10 71.1 0 0 67
Savigliano 19-04-2021 11:00 12.2 64.1 0 0 98
Savigliano 19-04-2021 12:00 12.4 55.4 0 0 105
Savigliano 19-04-2021 13:00 13.4 51.5 0 0 151
Savigliano 19-04-2021 14:00 14.4 46.1 0 0 140
Savigliano 19-04-2021 15:00 15.2 37.2 0 0 188
Savigliano 19-04-2021 16:00 14.9 35.8 0 1.8 125
Savigliano 19-04-2021 17:00 15.2 35.5 0 0 176
Savigliano 19-04-2021 18:00 15.2 36.5 0 0 142
Savigliano 19-04-2021 19:00 14.6 36.1 0 0 148
Savigliano 12-04-2021 07:40 0 0 0.6 0 0
Savigliano 12-04-2021 07:50 0 0 0.1 0 0
Savigliano 14-04-2021 19:45 0 0 0.2 0 0
Savigliano 14-04-2021 21:55 0 0 0.1 0 0
Savigliano 15-04-2021 06:40 0 0 0.1 0 0
Savigliano 15-04-2021 06:50 0 0 0.1 0 0
Savigliano 15-04-2021 06:55 0 0 0.1 0 0
Savigliano 15-04-2021 07:05 0 0 0.1 0 0
Savigliano 15-04-2021 07:10 0 0 0.1 0 0
Savigliano 15-04-2021 07:20 0 0 0.1 0 0
Savigliano 15-04-2021 07:25 0 0 0.1 0 0
Savigliano 15-04-2021 07:30 0 0 0.1 0 0
Savigliano 15-04-2021 07:40 0 0 0.1 0 0
Savigliano 15-04-2021 22:30 0 0 0.5 0 0
Savigliano 15-04-2021 23:55 0 0 0.2 0 0
Savigliano 16-04-2021 00:05 0 0 0.3 0 0
Savigliano 16-04-2021 00:10 0 0 0.2 0 0
Savigliano 16-04-2021 00:15 0 0 0.1 0 0
Savigliano 16-04-2021 00:20 0 0 0.1 0 0
Savigliano 16-04-2021 00:25 0 0 0.1 0 0
Savigliano 16-04-2021 00:30 0 0 0.1 0 0
Savigliano 16-04-2021 00:40 0 0 0.1 0 0
Savigliano 16-04-2021 01:15 0 0 0.1 0 0
Savigliano 16-04-2021 01:45 0 0 0.1 0 0
Savigliano 16-04-2021 01:55 0 0 0.1 0 0
Savigliano 16-04-2021 02:40 0 0 0.1 0 0
Savigliano 16-04-2021 02:55 0 0 0.1 0 0
Savigliano 16-04-2021 10:20 0 0 0.1 0 0
Savigliano 18-04-2021 02:35 0 0 0.1 0 0
Savigliano 18-04-2021 19:05 0 0 0.1 0 0
Savigliano 18-04-2021 19:10 0 0 0.7 0 0
Savigliano 18-04-2021 19:15 0 0 0.2 0 0
Savigliano 18-04-2021 19:20 0 0 0.8 0 0
Savigliano 12-04-2021 11:20 0 0 0 0 245
Savigliano 12-04-2021 19:40 0 0 0 0 119
Savigliano 13-04-2021 11:20 0 0 0 0 196
Savigliano 13-04-2021 19:40 0 0 0 0 133
Savigliano 14-04-2021 11:20 0 0 0 0 265
Savigliano 14-04-2021 19:40 0 0 0 0 177
Savigliano 15-04-2021 11:20 0 0 0 0 264
Savigliano 15-04-2021 19:40 0 0 0 0 264
Savigliano 16-04-2021 11:20 0 0 0 0 289
Savigliano 16-04-2021 19:40 0 0 0 0 264
Savigliano 17-04-2021 11:20 0 0 0 0 207
Savigliano 17-04-2021 19:40 0 0 0 0 205
Savigliano 18-04-2021 11:20 0 0 0 0 165
Savigliano 18-04-2021 19:40 0 0 0 0 183
Savigliano 19-04-2021 11:20 0 0 0 0 222
Savigliano 19-04-2021 19:40 0 0 0 0 145

Riassuntivo giornaliero del 19-04-2021